createdAt,value
2022-12-28T00:01:25.575Z,4.10
2022-12-28T00:03:52.166Z,4.60
2022-12-28T00:06:19.129Z,3.92
2022-12-28T00:08:45.607Z,4.55
2022-12-28T00:11:20.605Z,4.40
2022-12-28T00:13:56.807Z,4.90
2022-12-28T00:16:28.047Z,5.05
2022-12-28T00:18:55.506Z,5.63
2022-12-28T00:21:22.292Z,4.47
2022-12-28T00:23:50.462Z,4.50
2022-12-28T00:26:16.891Z,5.00
2022-12-28T00:28:43.505Z,3.63
2022-12-28T00:31:10.020Z,4.45
2022-12-28T00:33:36.496Z,5.13
2022-12-28T00:36:03.185Z,4.18
2022-12-28T00:38:31.729Z,4.07
2022-12-28T00:40:58.675Z,3.63
2022-12-28T00:43:25.218Z,4.22
2022-12-28T00:45:52.101Z,4.18
2022-12-28T00:48:18.816Z,3.92
2022-12-28T00:50:45.467Z,3.72
2022-12-28T00:53:11.951Z,4.18
2022-12-28T00:55:38.430Z,4.03
2022-12-28T00:58:04.987Z,3.78
2022-12-28T01:00:31.572Z,2.92
2022-12-28T01:02:58.103Z,3.28
2022-12-28T01:05:25.130Z,3.53
2022-12-28T01:07:51.773Z,3.03
2022-12-28T01:10:18.371Z,4.20
2022-12-28T01:12:44.961Z,3.08
2022-12-28T01:15:21.882Z,3.42
2022-12-28T01:17:48.269Z,3.65
2022-12-28T01:20:14.712Z,3.10
2022-12-28T01:22:41.242Z,2.88
2022-12-28T01:25:07.835Z,3.00
2022-12-28T01:27:34.223Z,2.95
2022-12-28T01:30:00.613Z,2.80
2022-12-28T01:32:27.189Z,3.38
2022-12-28T01:34:53.641Z,2.83
2022-12-28T01:37:20.082Z,2.65
2022-12-28T01:39:46.534Z,2.67
2022-12-28T01:42:17.287Z,3.17
2022-12-28T01:44:45.252Z,3.33
2022-12-28T01:47:16.078Z,3.10
2022-12-28T01:49:42.472Z,2.63
2022-12-28T01:52:18.025Z,2.42
2022-12-28T01:54:48.845Z,2.45
2022-12-28T01:57:15.674Z,2.75
2022-12-28T01:59:43.535Z,3.28
2022-12-28T02:02:12.168Z,1.98
2022-12-28T02:04:38.708Z,2.67
2022-12-28T02:07:05.273Z,3.50
2022-12-28T02:09:42.337Z,1.80
2022-12-28T02:12:10.874Z,3.28
2022-12-28T02:14:37.438Z,2.58
2022-12-28T02:17:03.973Z,2.92
2022-12-28T02:19:36.272Z,2.45
2022-12-28T02:22:16.996Z,2.53
2022-12-28T02:25:13.027Z,2.20
2022-12-28T02:27:49.330Z,2.05
2022-12-28T02:30:16.525Z,2.08
2022-12-28T02:33:04.699Z,1.90
2022-12-28T02:35:51.394Z,1.85
2022-12-28T02:38:28.449Z,2.05
2022-12-28T02:40:58.268Z,2.20
2022-12-28T02:43:25.293Z,2.45
2022-12-28T02:46:10.564Z,2.30
2022-12-28T02:48:59.654Z,3.03
2022-12-28T02:51:35.626Z,2.47
2022-12-28T02:54:40.728Z,2.30
2022-12-28T02:57:12.926Z,1.55
2022-12-28T02:59:53.565Z,2.20
2022-12-28T03:02:23.150Z,1.55
2022-12-28T03:05:08.619Z,1.65
2022-12-28T03:08:05.804Z,1.73
2022-12-28T03:10:35.548Z,1.55
2022-12-28T03:13:27.751Z,1.17
2022-12-28T03:15:55.735Z,2.38
2022-12-28T03:18:41.610Z,1.95
2022-12-28T03:21:28.472Z,1.80
2022-12-28T03:24:14.259Z,1.30
2022-12-28T03:27:02.597Z,2.28
2022-12-28T03:29:50.450Z,1.58
2022-12-28T03:32:16.908Z,1.95
2022-12-28T03:34:43.371Z,2.03
2022-12-28T03:37:17.702Z,1.52
2022-12-28T03:40:02.099Z,1.50
2022-12-28T03:42:56.908Z,1.70
2022-12-28T03:45:44.864Z,1.30
2022-12-28T03:48:15.079Z,1.55
2022-12-28T03:50:43.093Z,2.42
2022-12-28T03:53:09.654Z,1.60
2022-12-28T03:55:38.009Z,2.03
2022-12-28T03:58:07.687Z,1.52
2022-12-28T04:00:34.209Z,1.60
2022-12-28T04:03:00.639Z,1.92
2022-12-28T04:05:27.185Z,1.58
2022-12-28T04:07:53.942Z,1.40
2022-12-28T04:10:20.376Z,2.25
2022-12-28T04:12:46.793Z,1.27
2022-12-28T04:15:13.222Z,1.90
2022-12-28T04:17:39.758Z,1.40
2022-12-28T04:20:06.645Z,1.73
2022-12-28T04:22:33.047Z,1.90
2022-12-28T04:24:59.507Z,1.80
2022-12-28T04:27:25.947Z,1.55
2022-12-28T04:29:52.403Z,1.73
2022-12-28T04:32:19.025Z,0.90
2022-12-28T04:34:48.641Z,1.35
2022-12-28T04:37:15.602Z,1.38
2022-12-28T04:39:56.735Z,1.17
2022-12-28T04:42:24.764Z,1.80
2022-12-28T04:44:51.219Z,2.70
2022-12-28T04:47:17.681Z,1.00
2022-12-28T04:49:44.111Z,1.40
2022-12-28T04:52:10.545Z,1.23
2022-12-28T04:54:36.971Z,1.20
2022-12-28T04:57:03.577Z,2.00
2022-12-28T04:59:30.227Z,1.27
2022-12-28T05:01:56.776Z,2.08
2022-12-28T05:04:23.253Z,1.40
2022-12-28T05:06:49.736Z,1.75
2022-12-28T05:09:16.257Z,1.27
2022-12-28T05:11:42.684Z,1.83
2022-12-28T05:14:09.112Z,1.52
2022-12-28T05:16:35.625Z,2.00
2022-12-28T05:19:02.169Z,1.42
2022-12-28T05:21:28.947Z,1.65
2022-12-28T05:23:55.833Z,1.10
2022-12-28T05:26:23.755Z,1.42
2022-12-28T05:28:50.553Z,1.15
2022-12-28T05:31:18.387Z,1.50
2022-12-28T05:33:44.855Z,1.08
2022-12-28T05:36:13.059Z,1.10
2022-12-28T05:38:40.042Z,1.73
2022-12-28T05:41:06.503Z,1.23
2022-12-28T05:43:33.130Z,1.55
2022-12-28T05:46:04.161Z,1.27
2022-12-28T05:48:34.374Z,1.23
2022-12-28T05:51:05.040Z,1.48
2022-12-28T05:53:31.845Z,1.70
2022-12-28T05:56:08.340Z,1.60
2022-12-28T05:58:38.679Z,1.13
2022-12-28T06:01:05.273Z,1.38
2022-12-28T06:03:32.115Z,1.77
2022-12-28T06:06:02.356Z,1.35
2022-12-28T06:08:28.981Z,1.60
2022-12-28T06:10:58.907Z,1.30
2022-12-28T06:13:27.714Z,1.30
2022-12-28T06:15:54.274Z,1.48
2022-12-28T06:18:20.826Z,1.42
2022-12-28T06:20:49.266Z,1.35
2022-12-28T06:23:18.840Z,1.20
2022-12-28T06:25:45.258Z,1.33
2022-12-28T06:28:11.661Z,1.23
2022-12-28T06:30:38.077Z,1.33
2022-12-28T06:33:04.505Z,1.80
2022-12-28T06:35:31.049Z,2.33
2022-12-28T06:37:57.457Z,2.03
2022-12-28T06:40:39.697Z,1.73
2022-12-28T06:43:10.247Z,1.10
2022-12-28T06:45:36.707Z,2.10
2022-12-28T06:48:03.314Z,2.00
2022-12-28T06:50:29.822Z,2.00
2022-12-28T06:52:56.256Z,2.00
2022-12-28T06:55:22.693Z,2.08
2022-12-28T06:57:49.097Z,1.52
2022-12-28T07:00:15.659Z,1.42
2022-12-28T07:02:42.134Z,1.65
2022-12-28T07:05:08.666Z,2.22
2022-12-28T07:07:35.066Z,2.05
2022-12-28T07:10:01.450Z,2.00
2022-12-28T07:12:27.891Z,1.85
2022-12-28T07:14:54.375Z,2.15
2022-12-28T07:17:20.740Z,2.65
2022-12-28T07:19:47.160Z,1.77
2022-12-28T07:22:13.609Z,1.52
2022-12-28T07:24:40.287Z,1.67
2022-12-28T07:27:07.048Z,3.10
2022-12-28T07:29:33.500Z,2.00
2022-12-28T07:32:00.082Z,2.30
2022-12-28T07:34:27.591Z,2.00
2022-12-28T07:36:54.002Z,2.13
2022-12-28T07:39:20.411Z,3.13
2022-12-28T07:41:46.852Z,1.67
2022-12-28T07:44:13.275Z,2.38
2022-12-28T07:46:39.746Z,2.38
2022-12-28T07:49:06.333Z,2.53
2022-12-28T07:51:34.896Z,2.78
2022-12-28T07:54:01.533Z,2.92
2022-12-28T07:56:28.655Z,1.90
2022-12-28T07:58:56.532Z,2.72
2022-12-28T08:01:24.304Z,3.15
2022-12-28T08:03:55.519Z,3.25
2022-12-28T08:06:25.162Z,2.65
2022-12-28T08:08:55.866Z,3.35
2022-12-28T08:11:23.381Z,3.03
2022-12-28T08:13:50.824Z,3.00
2022-12-28T08:16:18.659Z,3.22
2022-12-28T08:18:45.512Z,3.33
2022-12-28T08:21:13.859Z,3.53
2022-12-28T08:23:40.253Z,4.63
2022-12-28T08:26:10.918Z,4.50
2022-12-28T08:28:37.978Z,3.88
2022-12-28T08:31:05.518Z,4.40
2022-12-28T08:33:31.963Z,3.55
2022-12-28T08:35:58.417Z,4.45
2022-12-28T08:38:24.837Z,5.20
2022-12-28T08:40:57.717Z,5.28
2022-12-28T08:43:24.344Z,4.70
2022-12-28T08:46:00.770Z,5.38
2022-12-28T08:48:27.743Z,4.65
2022-12-28T08:50:54.366Z,5.38
2022-12-28T08:53:21.893Z,5.38
2022-12-28T08:55:48.885Z,5.15
2022-12-28T08:58:15.269Z,5.30
2022-12-28T09:00:41.683Z,5.05
2022-12-28T09:03:08.144Z,5.30
2022-12-28T09:05:39.686Z,6.03
2022-12-28T09:08:06.376Z,5.63
2022-12-28T09:10:32.804Z,5.80
2022-12-28T09:12:59.249Z,5.93
2022-12-28T09:15:25.749Z,5.45
2022-12-28T09:17:52.179Z,5.60
2022-12-28T09:20:18.566Z,6.32
2022-12-28T09:22:45.013Z,4.97
2022-12-28T09:25:11.439Z,6.15
2022-12-28T09:27:37.820Z,6.18
2022-12-28T09:30:04.353Z,6.00
2022-12-28T09:32:30.891Z,5.63
2022-12-28T09:34:57.352Z,5.38
2022-12-28T09:37:23.860Z,5.78
2022-12-28T09:39:50.291Z,5.50
2022-12-28T09:42:23.630Z,5.72
2022-12-28T09:45:25.940Z,6.00
2022-12-28T09:47:56.114Z,5.88
2022-12-28T09:50:28.469Z,5.80
2022-12-28T09:55:21.420Z,4.70
2022-12-28T09:57:49.654Z,5.65
2022-12-28T10:00:21.360Z,4.32
2022-12-28T10:02:49.931Z,5.03
2022-12-28T10:05:16.806Z,4.88
2022-12-28T10:07:43.394Z,4.72
2022-12-28T10:10:13.735Z,4.45
2022-12-28T10:12:43.648Z,4.13
2022-12-28T10:15:14.042Z,5.20
2022-12-28T10:17:40.873Z,5.13
2022-12-28T10:20:13.970Z,6.13
2022-12-28T10:22:48.013Z,4.15
2022-12-28T10:25:18.414Z,6.45
2022-12-28T10:27:45.325Z,5.72
2022-12-28T10:30:29.697Z,5.07
2022-12-28T10:33:02.541Z,6.03
2022-12-28T10:35:41.250Z,5.28
2022-12-28T10:38:19.585Z,5.82
2022-12-28T10:40:46.106Z,5.60
2022-12-28T10:43:19.325Z,6.20
2022-12-28T10:45:48.064Z,7.28
2022-12-28T10:48:26.977Z,5.50
2022-12-28T10:50:54.567Z,4.60
2022-12-28T10:53:26.952Z,4.90
2022-12-28T10:58:30.765Z,5.45
2022-12-28T11:00:59.750Z,4.90
2022-12-28T11:03:30.688Z,3.90
2022-12-28T11:06:13.872Z,4.68
2022-12-28T11:08:40.971Z,5.88
2022-12-28T11:11:12.373Z,4.85
2022-12-28T11:13:39.211Z,4.38
2022-12-28T11:16:08.051Z,4.75
2022-12-28T11:18:37.922Z,3.88
2022-12-28T11:21:04.761Z,4.32
2022-12-28T11:23:32.880Z,4.55
2022-12-28T11:25:59.286Z,4.78
2022-12-28T11:28:25.729Z,3.88
2022-12-28T11:30:52.667Z,4.50
2022-12-28T11:33:26.881Z,4.70
2022-12-28T11:35:59.092Z,4.15
2022-12-28T11:38:42.445Z,5.05
2022-12-28T11:43:39.644Z,4.57
2022-12-28T11:46:07.389Z,3.67
2022-12-28T11:48:42.984Z,3.75
2022-12-28T11:51:22.996Z,4.45
2022-12-28T11:53:51.263Z,5.22
2022-12-28T11:56:19.096Z,3.35
2022-12-28T11:58:47.231Z,3.53
2022-12-28T12:01:33.728Z,3.92
2022-12-28T12:04:00.310Z,4.03
2022-12-28T12:06:42.063Z,3.58
2022-12-28T12:09:30.786Z,5.10
2022-12-28T12:12:01.334Z,4.10
2022-12-28T12:14:32.363Z,3.03
2022-12-28T12:17:03.895Z,4.30
2022-12-28T12:19:35.670Z,3.83
2022-12-28T12:22:17.636Z,3.63
2022-12-28T12:24:58.834Z,2.60
2022-12-28T12:27:36.607Z,2.80
2022-12-28T12:30:06.590Z,3.38
2022-12-28T12:32:39.519Z,3.25
2022-12-28T12:35:06.935Z,3.47
2022-12-28T12:37:38.051Z,4.03
2022-12-28T12:40:07.582Z,2.70
2022-12-28T12:42:37.115Z,2.40
2022-12-28T12:45:15.548Z,2.35
2022-12-28T12:47:49.672Z,2.83
2022-12-28T12:50:22.301Z,3.28
2022-12-28T12:52:54.398Z,2.92
2022-12-28T12:55:32.796Z,2.90
2022-12-28T12:58:18.410Z,2.88
2022-12-28T13:01:09.196Z,3.03
2022-12-28T13:03:35.593Z,2.78
2022-12-28T13:06:04.049Z,2.30
2022-12-28T13:08:38.012Z,2.67
2022-12-28T13:11:07.970Z,3.50
2022-12-28T13:13:36.052Z,2.83
2022-12-28T13:16:04.128Z,3.35
2022-12-28T13:18:46.340Z,4.90
2022-12-28T13:21:18.015Z,4.05
2022-12-28T13:23:45.151Z,5.22
2022-12-28T13:26:13.038Z,8.65
2022-12-28T13:28:45.901Z,7.22
2022-12-28T13:31:38.676Z,6.53
2022-12-28T13:36:31.842Z,6.20
2022-12-28T13:39:14.370Z,6.82
2022-12-28T13:44:14.138Z,6.65
2022-12-28T13:46:42.007Z,5.43
2022-12-28T13:49:09.006Z,4.45
2022-12-28T13:51:40.057Z,4.80
2022-12-28T13:54:07.202Z,5.10
2022-12-28T13:56:33.991Z,4.10
2022-12-28T13:59:03.096Z,4.40
2022-12-28T14:01:33.775Z,4.88
2022-12-28T14:04:50.736Z,3.95
2022-12-28T14:06:54.712Z,4.07
2022-12-28T14:09:21.661Z,4.10
2022-12-28T14:11:48.722Z,4.53
2022-12-28T14:14:18.503Z,3.92
2022-12-28T14:16:45.474Z,3.80
2022-12-28T14:19:12.371Z,4.57
2022-12-28T14:21:40.990Z,3.15
2022-12-28T14:24:14.644Z,3.78
2022-12-28T14:26:52.497Z,4.30
2022-12-28T14:29:27.187Z,3.60
2022-12-28T14:32:19.678Z,3.95
2022-12-28T14:34:51.015Z,4.57
2022-12-28T14:37:26.295Z,3.78
2022-12-28T14:39:58.196Z,3.63
2022-12-28T14:42:25.206Z,3.97
2022-12-28T14:47:45.656Z,3.53
2022-12-28T14:50:32.826Z,3.05
2022-12-28T14:53:15.516Z,4.93
2022-12-28T14:56:02.672Z,3.30
2022-12-28T14:58:31.969Z,3.80
2022-12-28T15:01:02.530Z,4.22
2022-12-28T15:03:30.679Z,3.58
2022-12-28T15:05:58.604Z,3.60
2022-12-28T15:08:28.016Z,3.58
2022-12-28T15:10:58.656Z,3.97
2022-12-28T15:13:25.509Z,4.07
2022-12-28T15:15:56.258Z,3.60
2022-12-28T15:18:23.011Z,3.20
2022-12-28T15:20:49.617Z,3.75
2022-12-28T15:23:16.605Z,3.60
2022-12-28T15:25:43.011Z,3.17
2022-12-28T15:28:09.402Z,3.42
2022-12-28T15:30:38.792Z,3.70
2022-12-28T15:33:05.219Z,3.25
2022-12-28T15:35:32.308Z,3.78
2022-12-28T15:37:58.724Z,3.05
2022-12-28T15:40:25.281Z,3.55
2022-12-28T15:42:51.929Z,3.33
2022-12-28T15:45:18.411Z,3.90
2022-12-28T15:47:45.279Z,5.50
2022-12-28T15:50:11.784Z,5.13
2022-12-28T15:52:38.258Z,6.13
2022-12-28T15:55:04.991Z,7.00
2022-12-28T15:57:31.473Z,7.03
2022-12-28T15:59:57.983Z,9.30
2022-12-28T16:02:24.708Z,9.57
2022-12-28T16:04:51.274Z,9.35
2022-12-28T16:07:19.298Z,10.50
2022-12-28T16:09:46.321Z,11.27
2022-12-28T16:12:17.345Z,11.68
2022-12-28T16:14:47.177Z,11.40
2022-12-28T16:17:14.131Z,11.25
2022-12-28T16:19:40.572Z,12.32
2022-12-28T16:22:07.104Z,11.68
2022-12-28T16:24:33.759Z,13.13
2022-12-28T16:27:00.191Z,12.25
2022-12-28T16:29:26.610Z,13.48
2022-12-28T16:31:54.086Z,12.60
2022-12-28T16:34:20.709Z,12.02
2022-12-28T16:36:47.201Z,13.38
2022-12-28T16:39:15.252Z,12.00
2022-12-28T16:41:42.057Z,12.85
2022-12-28T16:44:12.831Z,12.93
2022-12-28T16:46:39.295Z,12.18
2022-12-28T16:49:05.789Z,11.38
2022-12-28T16:51:32.266Z,12.02
2022-12-28T16:53:58.720Z,11.95
2022-12-28T16:56:25.350Z,12.05
2022-12-28T16:58:55.587Z,11.45
2022-12-28T17:01:22.111Z,11.82
2022-12-28T17:03:48.603Z,11.32
2022-12-28T17:06:16.383Z,12.05
2022-12-28T17:08:42.818Z,11.50
2022-12-28T17:11:10.229Z,11.10
2022-12-28T17:13:37.387Z,11.13
2022-12-28T17:16:04.272Z,10.45
2022-12-28T17:18:30.683Z,9.90
2022-12-28T17:21:00.634Z,8.95
2022-12-28T17:23:31.211Z,12.20
2022-12-28T17:25:58.022Z,11.13
2022-12-28T17:28:24.448Z,11.07
2022-12-28T17:30:51.089Z,10.30
2022-12-28T17:33:17.564Z,11.63
2022-12-28T17:35:44.269Z,10.55
2022-12-28T17:38:10.835Z,9.10
2022-12-28T17:40:38.453Z,8.52
2022-12-28T17:43:04.825Z,9.68
2022-12-28T17:45:31.228Z,10.60
2022-12-28T17:47:57.664Z,8.60
2022-12-28T17:50:24.123Z,8.55
2022-12-28T17:52:50.504Z,8.63
2022-12-28T17:55:16.940Z,7.88
2022-12-28T17:57:43.428Z,9.13
2022-12-28T18:00:10.279Z,9.45
2022-12-28T18:02:36.978Z,8.10
2022-12-28T18:05:03.606Z,7.65
2022-12-28T18:07:30.026Z,7.25
2022-12-28T18:09:56.526Z,6.18
2022-12-28T18:12:23.006Z,6.80
2022-12-28T18:14:50.336Z,6.65
2022-12-28T18:17:19.330Z,5.88
2022-12-28T18:19:45.945Z,7.45
2022-12-28T18:22:12.379Z,6.60
2022-12-28T18:24:38.803Z,5.57
2022-12-28T18:27:05.202Z,6.68
2022-12-28T18:29:31.645Z,5.82
2022-12-28T18:31:58.056Z,5.88
2022-12-28T18:34:24.533Z,5.35
2022-12-28T18:36:50.977Z,6.53
2022-12-28T18:39:17.437Z,6.38
2022-12-28T18:41:43.968Z,5.55
2022-12-28T18:44:10.412Z,5.13
2022-12-28T18:46:37.119Z,5.88
2022-12-28T18:49:03.646Z,4.60
2022-12-28T18:51:30.133Z,6.35
2022-12-28T18:53:56.531Z,4.78
2022-12-28T18:56:22.896Z,4.65
2022-12-28T18:58:50.569Z,4.43
2022-12-28T19:01:55.792Z,4.55
2022-12-28T19:04:05.792Z,5.07
2022-12-28T19:06:32.925Z,4.10
2022-12-28T19:08:59.998Z,5.15
2022-12-28T19:11:26.510Z,3.47
2022-12-28T19:13:52.921Z,3.63
2022-12-28T19:16:24.461Z,4.30
2022-12-28T19:18:55.363Z,4.05
2022-12-28T19:21:26.522Z,4.28
2022-12-28T19:23:53.459Z,3.53
2022-12-28T19:26:20.218Z,4.25
2022-12-28T19:28:46.612Z,4.25
2022-12-28T19:31:13.140Z,4.05
2022-12-28T19:33:39.564Z,3.38
2022-12-28T19:36:06.120Z,4.20
2022-12-28T19:38:33.071Z,4.40
2022-12-28T19:41:03.336Z,4.10
2022-12-28T19:43:29.742Z,4.47
2022-12-28T19:46:03.295Z,3.85
2022-12-28T19:48:29.754Z,4.28
2022-12-28T19:50:56.573Z,4.47
2022-12-28T19:53:22.993Z,4.45
2022-12-28T19:55:49.445Z,3.75
2022-12-28T19:58:15.865Z,3.47
2022-12-28T20:00:42.337Z,3.78
2022-12-28T20:03:10.081Z,3.72
2022-12-28T20:05:36.737Z,4.90
2022-12-28T20:08:03.205Z,4.07
2022-12-28T20:10:30.044Z,3.95
2022-12-28T20:12:56.442Z,4.40
2022-12-28T20:15:22.976Z,4.93
2022-12-28T20:17:49.373Z,3.60
2022-12-28T20:20:17.080Z,4.32
2022-12-28T20:22:44.654Z,3.85
2022-12-28T20:25:11.123Z,3.88
2022-12-28T20:27:37.563Z,5.32
2022-12-28T20:30:04.924Z,4.13
2022-12-28T20:32:31.397Z,3.88
2022-12-28T20:34:57.772Z,4.78
2022-12-28T20:37:24.129Z,5.38
2022-12-28T20:39:50.546Z,5.70
2022-12-28T20:42:35.663Z,5.70
2022-12-28T20:45:02.073Z,6.00
2022-12-28T20:47:28.504Z,5.45
2022-12-28T20:49:54.979Z,5.15
2022-12-28T20:52:21.408Z,5.57
2022-12-28T20:54:47.842Z,6.18
2022-12-28T20:57:14.395Z,5.90
2022-12-28T20:59:40.833Z,5.88
2022-12-28T21:02:09.380Z,4.80
2022-12-28T21:04:35.848Z,6.55
2022-12-28T21:07:02.260Z,6.03
2022-12-28T21:09:28.797Z,5.72
2022-12-28T21:11:55.200Z,5.65
2022-12-28T21:14:21.694Z,6.00
2022-12-28T21:16:48.503Z,6.05
2022-12-28T21:19:14.987Z,5.43
2022-12-28T21:21:41.570Z,5.15
2022-12-28T21:24:08.028Z,6.43
2022-12-28T21:26:34.434Z,4.75
2022-12-28T21:29:00.789Z,5.78
2022-12-28T21:31:27.222Z,6.03
2022-12-28T21:33:56.564Z,4.75
2022-12-28T21:36:23.060Z,5.97
2022-12-28T21:38:49.811Z,5.38
2022-12-28T21:41:37.751Z,5.82
2022-12-28T21:44:07.696Z,5.65
2022-12-28T21:46:34.804Z,6.03
2022-12-28T21:49:03.487Z,6.53
2022-12-28T21:51:35.084Z,6.03
2022-12-28T21:54:03.402Z,5.30
2022-12-28T21:56:30.318Z,5.30
2022-12-28T21:58:57.402Z,5.78
2022-12-28T22:01:42.855Z,5.80
2022-12-28T22:04:30.055Z,5.10
2022-12-28T22:06:56.582Z,5.05
2022-12-28T22:09:41.893Z,5.47
2022-12-28T22:12:28.449Z,5.70
2022-12-28T22:15:14.841Z,6.00
2022-12-28T22:17:41.596Z,6.35
2022-12-28T22:20:08.478Z,5.88
2022-12-28T22:22:34.951Z,6.10
2022-12-28T22:25:01.366Z,6.68
2022-12-28T22:27:27.875Z,5.13
2022-12-28T22:29:55.560Z,5.35
2022-12-28T22:32:22.643Z,5.18
2022-12-28T22:34:49.072Z,6.57
2022-12-28T22:37:15.691Z,4.25
2022-12-28T22:39:42.198Z,4.97
2022-12-28T22:42:08.788Z,4.88
2022-12-28T22:44:35.583Z,5.18
2022-12-28T22:47:02.326Z,6.03
2022-12-28T22:49:31.780Z,5.70
2022-12-28T22:51:58.182Z,4.88
2022-12-28T22:54:25.900Z,6.40
2022-12-28T22:56:55.073Z,4.47
2022-12-28T22:59:24.514Z,4.10
2022-12-28T23:02:14.237Z,5.18
2022-12-28T23:04:49.387Z,5.05
2022-12-28T23:07:15.892Z,4.82
2022-12-28T23:09:44.758Z,5.05
2022-12-28T23:12:13.515Z,4.43
2022-12-28T23:15:03.537Z,4.10
2022-12-28T23:17:29.960Z,4.85
2022-12-28T23:20:15.111Z,5.15
2022-12-28T23:23:25.805Z,5.55
2022-12-28T23:26:29.286Z,3.70
2022-12-28T23:28:55.654Z,3.67
2022-12-28T23:31:22.150Z,4.32
2022-12-28T23:33:48.650Z,3.85
2022-12-28T23:36:15.053Z,4.32
2022-12-28T23:38:44.404Z,4.22
2022-12-28T23:41:52.237Z,3.53
2022-12-28T23:44:20.773Z,4.10
2022-12-28T23:46:47.763Z,3.53
2022-12-28T23:49:14.672Z,3.95
2022-12-28T23:51:41.381Z,4.13
2022-12-28T23:54:08.592Z,4.10
2022-12-28T23:56:35.116Z,3.47
2022-12-28T23:59:01.894Z,3.78
